Flight Track Log - Related Links

Times and Time Zones

All times are in EDT time to prevent confusion due to time zone crossing. See the ASQ5430 flight status page for this flight to view local times or setup timezone preferences in your user account.

Time Position Orientation Groundspeed Altitude Reporting Facility
EDT Latitude Longitude Course Direction KTS MPH feet Rate Location/Type
Thu 10:50:38 AM 40.7986 -73.7206 39° Northeast 254 292 4,500  Level Boston Center
Thu 10:51:14 AM 40.8333 -73.6833 39° Northeast 291 335 6,100 2,467 Climbing New York TRACON
Thu 10:52:08 AM 40.9167 -73.6500 17° North 307 353 8,200 2,053 Climbing New York TRACON
Thu 10:53:08 AM 41.0000 -73.6000 24° Northeast 336 387 10,000 1,870 Climbing New York TRACON
Thu 10:54:42 AM 41.1433 -73.5225 22° Northeast 377 434 13,000 1,858 Climbing Boston Center
Thu 10:55:43 AM 41.2133 -73.3997 53° Northeast 412 474 14,800 984 Climbing Boston Center
Thu 10:56:44 AM 41.2364 -73.2747 76° East 405 466 15,000 984 Climbing Boston Center
Thu 10:57:45 AM 41.3411 -73.2031 27° Northeast 385 443 16,800 1,623 Climbing Boston Center
Thu 10:58:46 AM 41.4317 -73.2725 330° Northwest 375 432 18,300 1,561 Climbing Boston Center
Thu 10:59:48 AM 41.5264 -73.2486 11° North 425 489 20,000 1,805 Climbing Boston Center
Thu 11:00:49 AM 41.6242 -73.1342 41° Northeast 444 511 22,000 1,525 Climbing Boston Center
Thu 11:01:50 AM 41.7381 -73.1258 North 419 482 23,100 1,033 Climbing Boston Center
Thu 11:02:51 AM 41.8569 -73.1450 353° North 427 491 24,100 1,131 Climbing Boston Center
Thu 11:03:52 AM 41.9767 -73.1658 353° North 432 497 25,400 1,024 Climbing Boston Center
Thu 11:04:54 AM 42.1267 -73.1917 353° North 448 516 26,200 829 Climbing Boston Center
Thu 11:05:55 AM 42.2533 -73.1314 19° North 500 575 27,100 934 Climbing Boston Center
Thu 11:06:56 AM 42.3453 -72.9908 48° Northeast 527 606 28,100 984 Climbing Boston Center
Thu 11:07:57 AM 42.4414 -72.8400 49° Northeast 528 608 29,100 984 Climbing Boston Center
Thu 11:08:58 AM 42.5375 -72.6864 50° Northeast 530 610 30,100 1,024 Climbing Boston Center
Thu 11:10:00 AM 42.6344 -72.5333 49° Northeast 530 610 31,200 1,024 Climbing Boston Center
Thu 11:11:01 AM 42.7294 -72.3814 50° Northeast 530 610 32,200 885 Climbing Boston Center
Thu 11:12:02 AM 42.8369 -72.2069 50° Northeast 527 606 33,000 390 Climbing Boston Center
Thu 11:13:04 AM 42.9333 -72.0517 50° Northeast 534 615 33,000  Level Boston Center
Thu 11:14:05 AM 43.0319 -71.8897 50° Northeast 552 635 33,000  Level Boston Center
Thu 11:15:06 AM 43.1325 -71.7250 50° Northeast 559 643 33,000  Level Boston Center
Thu 11:16:08 AM 43.2347 -71.5553 50° Northeast 576 663 33,000  Level Boston Center
Thu 11:17:09 AM 43.3361 -71.3881 50° Northeast 575 662 33,000  Level Boston Center
Thu 11:18:11 AM 43.4375 -71.2183 51° Northeast 575 662 33,000  Level Boston Center
Thu 11:19:12 AM 43.5378 -71.0514 50° Northeast 572 658 33,000  Level Boston Center
Thu 11:20:13 AM 43.6564 -70.8511 51° Northeast 566 651 33,000  Level Boston Center
Thu 11:21:15 AM 43.7572 -70.6792 51° Northeast 564 649 33,000  Level Boston Center
Thu 11:22:16 AM 43.8547 -70.5114 51° Northeast 562 647 33,000  Level Boston Center
Thu 11:23:17 AM 43.9514 -70.3464 51° Northeast 553 636 33,000 -878 Level Boston Center
Thu 11:24:19 AM 44.0403 -70.1919 51° Northeast 514 592 31,200 -2,537 Descending Boston Center
Thu 11:25:20 AM 44.1289 -70.0372 51° Northeast 511 588 27,800 -3,393 Descending Boston Center
Thu 11:26:21 AM 44.2172 -69.8842 51° Northeast 510 587 24,300 -3,415 Descending Boston Center
Thu 11:27:23 AM 44.3031 -69.7356 51° Northeast 495 570 20,800 -3,512 Descending Boston Center
Thu 11:28:24 AM 44.3842 -69.5894 52° Northeast 482 555 17,100 -3,492 Descending Boston Center
Thu 11:29:25 AM 44.4603 -69.4542 52° Northeast 448 516 13,700 -2,634 Descending Boston Center
Thu 11:30:27 AM 44.5667 -69.3533 34° Northeast 380 437 11,700 -2,146 Descending Boston Center
Thu 11:31:28 AM 44.6472 -69.2953 27° Northeast 339 390 9,300 -2,262 Descending Boston Center
Thu 11:32:29 AM 44.7233 -69.2392 28° Northeast 318 366 7,100 -2,177 Descending Boston Center
Thu 11:33:32 AM 44.8033 -69.1878 24° Northeast 315 362 4,800 -1,707 Descending Boston Center
Thu 11:34:32 AM 44.8856 -69.1394 23° Northeast 317 365 3,600 -1,041 Descending Boston Center
Thu 11:35:33 AM 44.9483 -69.0819 33° Northeast 292 336 2,700 -391 Descending Boston Center
Thu 11:37:36 AM 44.9056 -68.9736 119° Southeast 175 201 2,400 -196 Descending Boston Center
Thu 11:38:37 AM 44.8794 -68.9336 133° Southeast 150 173 2,100 -488 Descending Boston Center
Thu 11:39:39 AM 44.8564 -68.9006 135° Southeast 132 152 1,400 -683 Descending Boston Center
Thu 11:40:40 AM 44.8339 -68.8672 134° Southeast 123 142 700 -541 Descending Boston Center
Thu 11:41:41 AM 44.8069 -68.8281 134° Southeast 122 140 300 -393 Descending Boston Center

Login

Don't have an account? Register now (free) for customized features, flight alerts, and more!